createdAt,value
2023-01-20T00:00:02.265Z,8.80
2023-01-20T00:01:02.207Z,8.20
2023-01-20T00:02:02.208Z,8.20
2023-01-20T00:03:02.173Z,9.10
2023-01-20T00:04:02.231Z,8.60
2023-01-20T00:05:02.148Z,8.40
2023-01-20T00:06:02.222Z,8.30
2023-01-20T00:07:02.158Z,8.50
2023-01-20T00:08:02.136Z,8.00
2023-01-20T00:09:02.116Z,8.20
2023-01-20T00:10:02.110Z,8.40
2023-01-20T00:11:02.119Z,8.30
2023-01-20T00:12:02.093Z,8.50
2023-01-20T00:13:02.074Z,8.40
2023-01-20T00:14:02.083Z,8.50
2023-01-20T00:15:02.074Z,8.20
2023-01-20T00:16:02.067Z,7.60
2023-01-20T00:17:02.022Z,8.00
2023-01-20T00:18:02.029Z,8.40
2023-01-20T00:19:02.031Z,8.40
2023-01-20T00:20:01.989Z,8.20
2023-01-20T00:21:01.992Z,8.50
2023-01-20T00:22:01.988Z,8.20
2023-01-20T00:23:01.958Z,8.40
2023-01-20T00:24:02.005Z,8.10
2023-01-20T00:25:01.936Z,8.50
2023-01-20T00:26:01.963Z,8.60
2023-01-20T00:27:01.919Z,8.60
2023-01-20T00:28:01.898Z,8.30
2023-01-20T00:29:01.942Z,8.50
2023-01-20T00:30:01.907Z,8.60
2023-01-20T00:31:01.913Z,8.70
2023-01-20T00:32:01.861Z,8.50
2023-01-20T00:33:01.863Z,8.70
2023-01-20T00:34:01.899Z,8.60
2023-01-20T00:35:01.823Z,8.50
2023-01-20T00:36:01.840Z,8.90
2023-01-20T00:37:01.823Z,9.00
2023-01-20T00:38:01.796Z,9.00
2023-01-20T00:39:01.777Z,8.80
2023-01-20T00:40:01.779Z,8.70
2023-01-20T00:41:02.667Z,9.10
2023-01-20T00:42:01.794Z,9.00
2023-01-20T00:43:01.734Z,8.60
2023-01-20T00:44:01.770Z,8.60
2023-01-20T00:45:01.712Z,8.50
2023-01-20T00:46:01.737Z,8.60
2023-01-20T00:47:01.687Z,9.00
2023-01-20T00:48:01.710Z,8.80
2023-01-20T00:49:01.701Z,8.70
2023-01-20T00:50:01.690Z,8.60
2023-01-20T00:51:01.707Z,8.90
2023-01-20T00:52:01.634Z,8.60
2023-01-20T00:53:01.623Z,8.80
2023-01-20T00:54:01.661Z,8.80
2023-01-20T00:55:01.605Z,9.00
2023-01-20T00:56:01.604Z,8.90
2023-01-20T00:57:01.611Z,8.80
2023-01-20T00:58:01.623Z,8.90
2023-01-20T00:59:01.584Z,8.50
2023-01-20T01:00:01.585Z,8.60
2023-01-20T01:01:01.712Z,9.00
2023-01-20T01:02:01.648Z,9.30
2023-01-20T01:03:01.551Z,8.50
2023-01-20T01:04:01.519Z,9.20
2023-01-20T01:05:01.491Z,9.30
2023-01-20T01:06:01.520Z,9.20
2023-01-20T01:07:01.484Z,9.30
2023-01-20T01:08:01.487Z,9.90
2023-01-20T01:09:01.493Z,9.90
2023-01-20T01:10:01.438Z,9.40
2023-01-20T01:11:01.429Z,9.30
2023-01-20T01:12:01.431Z,10.00
2023-01-20T01:13:01.456Z,9.60
2023-01-20T01:14:01.396Z,9.50
2023-01-20T01:15:01.385Z,9.90
2023-01-20T01:16:01.434Z,9.70
2023-01-20T01:17:01.367Z,9.50
2023-01-20T01:18:01.409Z,10.00
2023-01-20T01:19:01.364Z,9.80
2023-01-20T01:20:01.365Z,9.60
2023-01-20T01:21:01.316Z,9.90
2023-01-20T01:22:01.324Z,9.70
2023-01-20T01:23:01.311Z,9.40
2023-01-20T01:24:01.347Z,10.10
2023-01-20T01:25:01.290Z,10.30
2023-01-20T01:26:01.265Z,9.90
2023-01-20T01:27:01.247Z,9.80
2023-01-20T01:28:01.243Z,10.00
2023-01-20T01:29:01.256Z,9.70
2023-01-20T01:30:01.269Z,9.50
2023-01-20T01:31:01.288Z,9.50
2023-01-20T01:32:01.195Z,9.60
2023-01-20T01:33:01.207Z,9.40
2023-01-20T01:34:01.181Z,9.20
2023-01-20T01:35:01.159Z,9.80
2023-01-20T01:36:01.166Z,10.00
2023-01-20T01:37:01.195Z,10.10
2023-01-20T01:38:01.173Z,9.80
2023-01-20T01:39:01.141Z,10.20
2023-01-20T01:40:01.112Z,10.10
2023-01-20T01:41:01.108Z,9.20
2023-01-20T01:42:01.094Z,9.30
2023-01-20T01:43:01.131Z,9.00
2023-01-20T01:44:01.067Z,9.60
2023-01-20T01:45:01.091Z,10.00
2023-01-20T01:46:01.162Z,9.70
2023-01-20T01:47:01.037Z,9.50
2023-01-20T01:48:01.047Z,9.60
2023-01-20T01:49:01.075Z,10.30
2023-01-20T01:50:01.026Z,10.00
2023-01-20T01:51:01.017Z,10.20
2023-01-20T01:52:00.971Z,9.70
2023-01-20T01:53:01.008Z,9.50
2023-01-20T01:54:00.975Z,9.40
2023-01-20T01:55:00.978Z,9.70
2023-01-20T01:56:00.948Z,9.50
2023-01-20T01:57:00.973Z,9.80
2023-01-20T01:58:00.906Z,9.70
2023-01-20T01:59:00.920Z,10.00
2023-01-20T02:00:00.896Z,9.80
2023-01-20T02:01:01.012Z,9.90
2023-01-20T02:02:01.054Z,9.80
2023-01-20T02:03:00.863Z,10.20
2023-01-20T02:04:00.847Z,10.10
2023-01-20T02:05:00.838Z,9.80
2023-01-20T02:06:00.823Z,10.00
2023-01-20T02:07:00.830Z,9.90
2023-01-20T02:08:00.826Z,9.70
2023-01-20T02:09:00.808Z,9.80
2023-01-20T02:10:00.825Z,9.50
2023-01-20T02:11:00.778Z,9.80
2023-01-20T02:12:00.759Z,10.00
2023-01-20T02:13:00.760Z,10.50
2023-01-20T02:14:00.728Z,10.30
2023-01-20T02:15:00.757Z,10.10
2023-01-20T02:16:00.802Z,10.10
2023-01-20T02:17:00.719Z,10.50
2023-01-20T02:18:00.685Z,10.10
2023-01-20T02:19:00.693Z,10.60
2023-01-20T02:20:00.716Z,10.40
2023-01-20T02:21:00.660Z,10.70
2023-01-20T02:22:00.651Z,10.30
2023-01-20T02:23:00.636Z,10.70
2023-01-20T02:24:00.622Z,10.50
2023-01-20T02:25:00.639Z,10.80
2023-01-20T02:26:00.638Z,10.70
2023-01-20T02:27:00.589Z,10.50
2023-01-20T02:28:00.601Z,10.70
2023-01-20T02:29:00.565Z,10.10
2023-01-20T02:30:00.553Z,9.60
2023-01-20T02:31:00.566Z,9.90
2023-01-20T02:32:00.566Z,10.20
2023-01-20T02:33:00.624Z,10.10
2023-01-20T02:34:00.536Z,10.10
2023-01-20T02:35:00.507Z,10.00
2023-01-20T02:36:00.520Z,10.20
2023-01-20T02:37:00.479Z,9.90
2023-01-20T02:38:00.513Z,10.00
2023-01-20T02:39:00.470Z,10.20
2023-01-20T02:40:00.477Z,10.30
2023-01-20T02:41:00.439Z,10.90
2023-01-20T02:42:00.469Z,10.70
2023-01-20T02:43:00.442Z,10.50
2023-01-20T02:44:00.412Z,10.60
2023-01-20T02:45:00.434Z,10.70
2023-01-20T02:46:00.461Z,10.60
2023-01-20T02:47:00.367Z,11.00
2023-01-20T02:48:00.362Z,10.90
2023-01-20T02:49:00.382Z,11.10
2023-01-20T02:50:00.366Z,10.90
2023-01-20T02:51:00.340Z,11.00
2023-01-20T02:52:00.318Z,11.40
2023-01-20T02:53:00.303Z,11.60
2023-01-20T02:54:00.293Z,12.60
2023-01-20T02:55:00.304Z,12.50
2023-01-20T02:56:00.333Z,12.40
2023-01-20T02:57:00.282Z,13.00
2023-01-20T02:58:00.287Z,13.40
2023-01-20T02:59:00.239Z,13.90
2023-01-20T03:00:00.273Z,15.10
2023-01-20T03:01:00.381Z,16.10
2023-01-20T03:02:00.394Z,16.60
2023-01-20T03:03:00.205Z,14.60
2023-01-20T03:04:00.268Z,13.90
2023-01-20T03:05:00.193Z,14.10
2023-01-20T03:06:00.234Z,13.10
2023-01-20T03:07:00.201Z,12.60
2023-01-20T03:08:00.154Z,12.50
2023-01-20T03:09:00.159Z,12.40
2023-01-20T03:10:00.136Z,12.10
2023-01-20T03:11:00.116Z,11.80
2023-01-20T03:12:00.138Z,11.00
2023-01-20T03:13:00.144Z,10.90
2023-01-20T03:14:00.115Z,11.40
2023-01-20T03:15:00.062Z,11.00
2023-01-20T03:16:00.149Z,10.50
2023-01-20T03:17:00.061Z,10.30
2023-01-20T03:18:00.043Z,10.50
2023-01-20T03:19:00.074Z,11.00
2023-01-20T03:20:00.020Z,11.00
2023-01-20T03:21:00.039Z,11.20
2023-01-20T03:22:00.007Z,10.50
2023-01-20T03:22:59.976Z,11.20
2023-01-20T03:23:59.992Z,10.40
2023-01-20T03:24:59.991Z,10.80
2023-01-20T03:25:59.957Z,10.80
2023-01-20T03:26:59.972Z,10.50
2023-01-20T03:27:59.921Z,10.80
2023-01-20T03:28:59.913Z,10.20
2023-01-20T03:29:59.952Z,11.00
2023-01-20T03:31:00.053Z,11.10
2023-01-20T03:31:59.904Z,10.90
2023-01-20T03:32:59.863Z,10.60
2023-01-20T03:33:59.854Z,10.90
2023-01-20T03:35:00.243Z,11.00
2023-01-20T03:35:59.829Z,10.50
2023-01-20T03:36:59.857Z,10.50
2023-01-20T03:37:59.806Z,9.80
2023-01-20T03:38:59.797Z,10.50
2023-01-20T03:39:59.807Z,10.50
2023-01-20T03:40:59.801Z,10.90
2023-01-20T03:41:59.772Z,11.40
2023-01-20T03:42:59.802Z,19.20
2023-01-20T03:43:59.740Z,16.10
2023-01-20T03:44:59.739Z,44.00
2023-01-20T03:45:59.776Z,45.80
2023-01-20T03:46:59.732Z,28.40
2023-01-20T03:47:59.730Z,33.50
2023-01-20T03:48:59.740Z,29.10
2023-01-20T03:49:59.674Z,19.20
2023-01-20T03:50:59.666Z,25.50
2023-01-20T03:51:59.652Z,24.10
2023-01-20T03:52:59.670Z,24.30
2023-01-20T03:53:59.655Z,26.40
2023-01-20T03:54:59.661Z,24.20
2023-01-20T03:55:59.608Z,22.70
2023-01-20T03:56:59.601Z,20.20
2023-01-20T03:57:59.632Z,20.00
2023-01-20T03:58:59.576Z,17.90
2023-01-20T03:59:59.572Z,15.60
2023-01-20T04:01:18.207Z,13.10
2023-01-20T04:02:00.695Z,15.20
2023-01-20T04:02:59.538Z,15.20
2023-01-20T04:03:59.539Z,14.20
2023-01-20T04:04:59.537Z,14.20
2023-01-20T04:05:59.518Z,13.10
2023-01-20T04:06:59.484Z,12.20
2023-01-20T04:07:59.497Z,12.70
2023-01-20T04:08:59.494Z,12.80
2023-01-20T04:09:59.472Z,12.00
2023-01-20T04:10:59.481Z,13.00
2023-01-20T04:11:59.474Z,14.10
2023-01-20T04:12:59.419Z,14.30
2023-01-20T04:13:59.432Z,13.90
2023-01-20T04:14:59.403Z,14.80
2023-01-20T04:15:59.496Z,14.00
2023-01-20T04:16:59.448Z,14.70
2023-01-20T04:17:59.362Z,14.00
2023-01-20T04:18:59.397Z,14.00
2023-01-20T04:19:59.341Z,14.00
2023-01-20T04:20:59.357Z,13.90
2023-01-20T04:21:59.345Z,13.20
2023-01-20T04:22:59.318Z,12.90
2023-01-20T04:23:59.334Z,12.90
2023-01-20T04:24:59.309Z,12.60
2023-01-20T04:25:59.273Z,12.00
2023-01-20T04:26:59.283Z,12.70
2023-01-20T04:27:59.283Z,13.00
2023-01-20T04:28:59.259Z,12.00
2023-01-20T04:29:59.259Z,12.30
2023-01-20T04:30:59.401Z,12.00
2023-01-20T04:31:59.251Z,11.50
2023-01-20T04:32:59.219Z,12.10
2023-01-20T04:33:59.226Z,11.50
2023-01-20T04:34:59.205Z,11.70
2023-01-20T04:35:59.172Z,12.10
2023-01-20T04:36:59.153Z,11.50
2023-01-20T04:37:59.175Z,11.30
2023-01-20T04:38:59.167Z,11.40
2023-01-20T04:39:59.180Z,11.30
2023-01-20T04:40:59.108Z,11.30
2023-01-20T04:41:59.098Z,10.80
2023-01-20T04:42:59.086Z,10.70
2023-01-20T04:43:59.088Z,11.00
2023-01-20T04:44:59.067Z,11.00
2023-01-20T04:45:59.129Z,10.70
2023-01-20T04:46:59.074Z,11.20
2023-01-20T04:47:59.104Z,11.10
2023-01-20T04:48:59.045Z,10.90
2023-01-20T04:49:59.046Z,11.00
2023-01-20T04:50:59.006Z,11.80
2023-01-20T04:51:59.004Z,12.40
2023-01-20T04:53:00.776Z,12.30
2023-01-20T04:53:58.963Z,11.90
2023-01-20T04:54:58.993Z,10.80
2023-01-20T04:55:58.941Z,11.10
2023-01-20T04:56:58.944Z,11.30
2023-01-20T04:57:58.919Z,10.80
2023-01-20T04:58:58.985Z,10.70
2023-01-20T04:59:58.898Z,10.60
2023-01-20T05:00:58.938Z,10.90
2023-01-20T05:01:59.085Z,10.90
2023-01-20T05:02:59.014Z,10.90
2023-01-20T05:03:58.853Z,11.00
2023-01-20T05:04:58.903Z,11.20
2023-01-20T05:05:58.837Z,11.20
2023-01-20T05:06:58.832Z,11.10
2023-01-20T05:07:58.817Z,11.00
2023-01-20T05:08:58.825Z,11.40
2023-01-20T05:09:58.787Z,11.70
2023-01-20T05:10:58.792Z,10.90
2023-01-20T05:11:58.793Z,11.30
2023-01-20T05:12:58.776Z,11.20
2023-01-20T05:13:58.757Z,11.50
2023-01-20T05:14:58.747Z,10.70
2023-01-20T05:16:00.174Z,11.50
2023-01-20T05:16:58.768Z,11.80
2023-01-20T05:17:58.700Z,11.90
2023-01-20T05:18:58.690Z,12.50
2023-01-20T05:19:58.724Z,13.00
2023-01-20T05:20:58.690Z,12.70
2023-01-20T05:21:58.654Z,13.50
2023-01-20T05:23:01.214Z,13.70
2023-01-20T05:23:58.637Z,13.20
2023-01-20T05:24:58.623Z,13.40
2023-01-20T05:25:58.639Z,13.90
2023-01-20T05:26:58.615Z,13.60
2023-01-20T05:27:58.593Z,13.20
2023-01-20T05:28:58.613Z,12.80
2023-01-20T05:29:58.577Z,12.70
2023-01-20T05:30:58.737Z,12.40
2023-01-20T05:31:58.568Z,13.00
2023-01-20T05:32:58.539Z,12.40
2023-01-20T05:33:58.544Z,14.10
2023-01-20T05:34:58.511Z,14.10
2023-01-20T05:35:58.534Z,15.20
2023-01-20T05:36:58.516Z,16.80
2023-01-20T05:37:58.506Z,17.60
2023-01-20T05:38:58.468Z,17.40
2023-01-20T05:39:58.479Z,17.00
2023-01-20T05:40:58.446Z,16.10
2023-01-20T05:41:58.480Z,14.30
2023-01-20T05:42:58.436Z,14.80
2023-01-20T05:43:58.411Z,14.80
2023-01-20T05:44:58.450Z,14.70
2023-01-20T05:45:58.389Z,14.30
2023-01-20T05:46:58.389Z,15.40
2023-01-20T05:47:58.407Z,14.60
2023-01-20T05:48:58.375Z,14.40
2023-01-20T05:49:58.344Z,14.50
2023-01-20T05:50:58.361Z,15.20
2023-01-20T05:51:58.345Z,14.50
2023-01-20T05:52:58.345Z,14.30
2023-01-20T05:53:58.322Z,14.40
2023-01-20T05:54:58.303Z,14.50
2023-01-20T05:55:58.278Z,14.00
2023-01-20T05:56:58.292Z,13.80
2023-01-20T05:57:58.257Z,14.30
2023-01-20T05:58:58.288Z,14.90
2023-01-20T05:59:58.261Z,14.20
2023-01-20T06:00:58.247Z,14.20
2023-01-20T06:01:58.928Z,14.40
2023-01-20T06:02:58.260Z,14.90
2023-01-20T06:03:58.226Z,13.90
2023-01-20T06:04:58.213Z,13.60
2023-01-20T06:05:58.207Z,14.20
2023-01-20T06:06:58.158Z,13.80
2023-01-20T06:07:58.201Z,13.70
2023-01-20T06:08:58.178Z,13.70
2023-01-20T06:09:58.175Z,13.80
2023-01-20T06:10:58.120Z,14.00
2023-01-20T06:11:58.153Z,13.80
2023-01-20T06:12:58.130Z,13.80
2023-01-20T06:13:58.082Z,13.60
2023-01-20T06:14:58.092Z,14.10
2023-01-20T06:15:58.152Z,13.90
2023-01-20T06:16:58.085Z,14.60
2023-01-20T06:17:58.068Z,14.10
2023-01-20T06:18:58.063Z,14.10
2023-01-20T06:19:58.017Z,14.40
2023-01-20T06:20:58.006Z,14.30
2023-01-20T06:21:58.008Z,14.30
2023-01-20T06:22:58.025Z,13.80
2023-01-20T06:23:58.004Z,14.00
2023-01-20T06:24:57.983Z,13.10
2023-01-20T06:25:57.959Z,12.90
2023-01-20T06:26:57.938Z,13.40
2023-01-20T06:27:57.925Z,13.30
2023-01-20T06:28:57.953Z,13.60
2023-01-20T06:29:57.952Z,13.20
2023-01-20T06:30:58.032Z,13.30
2023-01-20T06:31:57.958Z,13.90
2023-01-20T06:32:57.885Z,14.50
2023-01-20T06:33:57.871Z,14.60
2023-01-20T06:34:57.864Z,14.30
2023-01-20T06:35:57.879Z,14.30
2023-01-20T06:36:57.874Z,13.40
2023-01-20T06:37:57.817Z,13.90
2023-01-20T06:38:57.821Z,13.50
2023-01-20T06:39:58.754Z,13.40
2023-01-20T06:40:57.811Z,13.70
2023-01-20T06:41:57.804Z,12.80
2023-01-20T06:42:57.781Z,13.60
2023-01-20T06:43:57.750Z,13.70
2023-01-20T06:44:57.759Z,13.30
2023-01-20T06:45:57.763Z,13.60
2023-01-20T06:46:57.732Z,13.50
2023-01-20T06:47:57.763Z,13.90
2023-01-20T06:48:57.710Z,14.10
2023-01-20T06:49:57.720Z,14.00
2023-01-20T06:50:57.703Z,14.30
2023-01-20T06:51:57.678Z,14.50
2023-01-20T06:52:57.690Z,13.90
2023-01-20T06:53:57.651Z,15.10
2023-01-20T06:54:57.657Z,14.30
2023-01-20T06:55:57.643Z,14.60
2023-01-20T06:56:57.624Z,14.70
2023-01-20T06:57:57.615Z,14.60
2023-01-20T06:58:57.622Z,14.40
2023-01-20T06:59:57.618Z,15.40
2023-01-20T07:00:57.659Z,14.90
2023-01-20T07:01:57.671Z,15.20
2023-01-20T07:02:57.579Z,15.20
2023-01-20T07:03:57.554Z,15.40
2023-01-20T07:04:57.521Z,15.00
2023-01-20T07:05:57.526Z,15.30
2023-01-20T07:06:57.498Z,15.40
2023-01-20T07:07:57.511Z,15.00
2023-01-20T07:08:58.912Z,15.00
2023-01-20T07:09:57.480Z,15.70
2023-01-20T07:10:57.452Z,15.80
2023-01-20T07:11:57.468Z,15.80
2023-01-20T07:12:57.449Z,15.50
2023-01-20T07:13:57.417Z,16.00
2023-01-20T07:14:57.450Z,15.20
2023-01-20T07:15:57.457Z,15.30
2023-01-20T07:16:57.385Z,17.20
2023-01-20T07:17:57.416Z,18.30
2023-01-20T07:18:57.370Z,18.10
2023-01-20T07:19:57.388Z,16.50
2023-01-20T07:20:57.381Z,15.90
2023-01-20T07:21:57.327Z,16.10
2023-01-20T07:22:57.317Z,15.90
2023-01-20T07:23:57.346Z,16.00
2023-01-20T07:24:57.308Z,15.70
2023-01-20T07:25:57.316Z,15.70
2023-01-20T07:26:57.296Z,15.30
2023-01-20T07:27:57.265Z,15.40
2023-01-20T07:28:57.291Z,15.10
2023-01-20T07:29:57.264Z,15.30
2023-01-20T07:30:57.285Z,15.50
2023-01-20T07:31:57.313Z,15.30
2023-01-20T07:32:57.205Z,14.80
2023-01-20T07:33:57.198Z,15.20
2023-01-20T07:34:57.204Z,15.20
2023-01-20T07:35:57.189Z,15.10
2023-01-20T07:36:57.176Z,15.60
2023-01-20T07:37:57.169Z,15.10
2023-01-20T07:38:57.184Z,15.00
2023-01-20T07:39:57.129Z,15.90
2023-01-20T07:40:57.141Z,14.90
2023-01-20T07:41:57.120Z,14.20
2023-01-20T07:42:57.113Z,14.10
2023-01-20T07:43:57.135Z,14.00
2023-01-20T07:44:57.093Z,14.30
2023-01-20T07:45:57.115Z,14.70
2023-01-20T07:46:57.051Z,14.40
2023-01-20T07:47:57.058Z,14.80
2023-01-20T07:48:57.088Z,14.40
2023-01-20T07:49:57.033Z,14.70
2023-01-20T07:50:57.007Z,14.20
2023-01-20T07:51:56.995Z,16.20
2023-01-20T07:52:56.995Z,14.60
2023-01-20T07:53:57.004Z,14.10
2023-01-20T07:54:56.996Z,14.10
2023-01-20T07:55:56.984Z,14.70
2023-01-20T07:56:56.939Z,14.10
2023-01-20T07:57:56.933Z,14.00
2023-01-20T07:58:56.928Z,13.60
2023-01-20T07:59:56.941Z,14.70
2023-01-20T08:00:56.994Z,14.40
2023-01-20T08:01:56.985Z,14.80
2023-01-20T08:02:56.876Z,15.00
2023-01-20T08:03:56.863Z,15.30
2023-01-20T08:04:56.969Z,15.80
2023-01-20T08:05:56.887Z,15.40
2023-01-20T08:06:56.846Z,16.00
2023-01-20T08:07:56.848Z,15.50
2023-01-20T08:08:58.797Z,15.60
2023-01-20T08:09:56.833Z,15.30
2023-01-20T08:10:56.829Z,15.80
2023-01-20T08:11:56.795Z,16.50
2023-01-20T08:12:56.799Z,15.90
2023-01-20T08:13:56.797Z,16.40
2023-01-20T08:14:56.742Z,15.80
2023-01-20T08:15:56.745Z,15.90
2023-01-20T08:16:56.807Z,16.10
2023-01-20T08:17:56.728Z,15.50
2023-01-20T08:18:56.728Z,14.40
2023-01-20T08:19:56.703Z,15.70
2023-01-20T08:20:56.702Z,15.70
2023-01-20T08:21:56.686Z,15.40
2023-01-20T08:22:56.698Z,15.40
2023-01-20T08:23:56.686Z,15.50
2023-01-20T08:24:56.631Z,15.20
2023-01-20T08:25:56.637Z,16.30
2023-01-20T08:26:56.605Z,15.60
2023-01-20T08:27:56.613Z,15.60
2023-01-20T08:28:56.663Z,16.30
2023-01-20T08:29:56.604Z,16.50
2023-01-20T08:30:56.675Z,16.90
2023-01-20T08:31:56.737Z,17.70
2023-01-20T08:32:56.557Z,17.80
2023-01-20T08:33:56.569Z,17.90
2023-01-20T08:34:56.563Z,17.20
2023-01-20T08:35:56.511Z,17.00
2023-01-20T08:36:56.499Z,17.60
2023-01-20T08:37:56.548Z,17.10
2023-01-20T08:38:56.499Z,17.90
2023-01-20T08:39:56.492Z,17.70
2023-01-20T08:40:56.475Z,17.30
2023-01-20T08:41:56.463Z,17.40
2023-01-20T08:42:56.427Z,17.10
2023-01-20T08:43:56.460Z,16.70
2023-01-20T08:44:56.432Z,17.10
2023-01-20T08:45:56.492Z,17.10
2023-01-20T08:46:56.421Z,17.00
2023-01-20T08:47:56.382Z,16.90
2023-01-20T08:48:56.382Z,16.70
2023-01-20T08:49:56.351Z,16.60
2023-01-20T08:50:56.350Z,16.70
2023-01-20T08:51:56.405Z,17.20
2023-01-20T08:52:56.364Z,16.80
2023-01-20T08:53:56.339Z,16.20
2023-01-20T08:54:56.313Z,17.20
2023-01-20T08:55:56.300Z,16.70
2023-01-20T08:56:56.272Z,16.50
2023-01-20T08:57:56.323Z,16.10
2023-01-20T08:58:56.251Z,15.80
2023-01-20T08:59:56.241Z,15.60
2023-01-20T09:00:56.277Z,16.40
2023-01-20T09:01:56.244Z,16.50
2023-01-20T09:02:56.217Z,16.30
2023-01-20T09:04:05.467Z,16.10
2023-01-20T09:04:57.229Z,16.20
2023-01-20T09:05:56.201Z,15.70
2023-01-20T09:06:56.163Z,16.20
2023-01-20T09:07:56.175Z,15.40
2023-01-20T09:08:56.148Z,15.60
2023-01-20T09:09:56.191Z,16.40
2023-01-20T09:10:56.151Z,15.40
2023-01-20T09:11:56.105Z,15.50
2023-01-20T09:12:56.102Z,15.30
2023-01-20T09:13:56.092Z,15.50
2023-01-20T09:14:56.087Z,15.60
2023-01-20T09:16:01.446Z,15.10
2023-01-20T09:16:56.049Z,15.50
2023-01-20T09:17:56.055Z,15.10
2023-01-20T09:18:56.035Z,16.00
2023-01-20T09:19:56.043Z,15.70
2023-01-20T09:20:56.054Z,15.50
2023-01-20T09:21:56.045Z,14.80
2023-01-20T09:22:55.984Z,15.30
2023-01-20T09:23:55.975Z,15.30
2023-01-20T09:24:55.973Z,15.10
2023-01-20T09:25:55.958Z,14.50
2023-01-20T09:26:55.965Z,14.90
2023-01-20T09:27:55.973Z,15.30
2023-01-20T09:28:55.920Z,14.90
2023-01-20T09:29:55.906Z,16.00
2023-01-20T09:30:55.995Z,15.90
2023-01-20T09:31:55.922Z,15.30
2023-01-20T09:32:55.902Z,15.30
2023-01-20T09:33:55.912Z,14.90
2023-01-20T09:34:55.849Z,13.90
2023-01-20T09:35:55.843Z,14.50
2023-01-20T09:36:55.960Z,14.60
2023-01-20T09:37:55.833Z,14.50
2023-01-20T09:38:55.858Z,13.90
2023-01-20T09:39:55.832Z,14.40
2023-01-20T09:40:55.781Z,14.10
2023-01-20T09:41:55.802Z,14.60
2023-01-20T09:42:55.769Z,14.90
2023-01-20T09:43:55.778Z,14.30
2023-01-20T09:44:55.743Z,14.70
2023-01-20T09:45:55.775Z,15.50
2023-01-20T09:46:55.718Z,15.00
2023-01-20T09:47:55.806Z,16.10
2023-01-20T09:48:55.713Z,15.70
2023-01-20T09:49:55.695Z,16.60
2023-01-20T09:50:55.703Z,16.50
2023-01-20T09:51:55.687Z,16.10
2023-01-20T09:52:55.837Z,15.90
2023-01-20T09:53:55.642Z,15.50
2023-01-20T09:54:55.643Z,16.10
2023-01-20T09:55:55.662Z,15.50
2023-01-20T09:56:55.607Z,16.00
2023-01-20T09:57:55.651Z,16.60
2023-01-20T09:58:55.594Z,16.20
2023-01-20T09:59:55.573Z,16.30
2023-01-20T10:00:55.579Z,17.40
2023-01-20T10:01:55.652Z,16.90
2023-01-20T10:02:55.585Z,16.10
2023-01-20T10:03:55.548Z,16.00
2023-01-20T10:04:55.531Z,17.10
2023-01-20T10:05:55.516Z,16.30
2023-01-20T10:06:55.506Z,16.30
2023-01-20T10:07:55.487Z,17.10
2023-01-20T10:09:04.836Z,18.20
2023-01-20T10:09:56.472Z,16.40
2023-01-20T10:10:55.467Z,16.70
2023-01-20T10:11:55.452Z,16.20
2023-01-20T10:12:55.448Z,15.40
2023-01-20T10:13:55.427Z,15.10
2023-01-20T10:14:55.614Z,15.40
2023-01-20T10:15:55.486Z,15.40
2023-01-20T10:16:55.389Z,15.60
2023-01-20T10:17:55.387Z,16.00
2023-01-20T10:18:55.360Z,16.10
2023-01-20T10:19:55.360Z,17.60
2023-01-20T10:20:55.356Z,17.30
2023-01-20T10:21:55.368Z,17.80
2023-01-20T10:22:55.318Z,18.20
2023-01-20T10:23:55.325Z,18.80
2023-01-20T10:24:55.316Z,19.00
2023-01-20T10:25:55.295Z,18.70
2023-01-20T10:26:55.267Z,18.50
2023-01-20T10:27:55.317Z,18.40
2023-01-20T10:28:55.277Z,18.60
2023-01-20T10:29:55.250Z,19.00
2023-01-20T10:30:55.301Z,19.00
2023-01-20T10:31:55.251Z,19.80
2023-01-20T10:32:55.204Z,19.10
2023-01-20T10:33:55.235Z,20.60
2023-01-20T10:34:56.649Z,20.20
2023-01-20T10:35:55.170Z,19.60
2023-01-20T10:36:55.174Z,20.00
2023-01-20T10:37:55.173Z,20.00
2023-01-20T10:38:55.162Z,20.10
2023-01-20T10:39:55.164Z,20.50
2023-01-20T10:40:55.152Z,19.90
2023-01-20T10:41:55.100Z,20.60
2023-01-20T10:42:55.094Z,20.50
2023-01-20T10:43:55.098Z,20.70
2023-01-20T10:44:55.092Z,20.10
2023-01-20T10:45:55.102Z,20.80
2023-01-20T10:46:55.141Z,21.20
2023-01-20T10:47:55.033Z,20.00
2023-01-20T10:48:55.051Z,20.50
2023-01-20T10:49:55.027Z,19.90
2023-01-20T10:50:55.000Z,19.50
2023-01-20T10:51:55.016Z,19.80
2023-01-20T10:52:55.009Z,19.60
2023-01-20T10:53:54.978Z,19.40
2023-01-20T10:54:54.955Z,19.10
2023-01-20T10:55:57.186Z,20.10
2023-01-20T10:56:55.096Z,19.80
2023-01-20T10:57:54.943Z,20.00
2023-01-20T10:58:54.912Z,19.30
2023-01-20T10:59:54.898Z,20.20
2023-01-20T11:00:54.892Z,19.90
2023-01-20T11:02:06.199Z,19.90
2023-01-20T11:02:58.239Z,20.70
2023-01-20T11:03:54.889Z,19.80
2023-01-20T11:04:54.871Z,20.10
2023-01-20T11:05:54.831Z,20.10
2023-01-20T11:06:54.823Z,20.10
2023-01-20T11:07:54.822Z,20.00
2023-01-20T11:08:54.818Z,20.90
2023-01-20T11:09:55.796Z,21.50
2023-01-20T11:10:54.779Z,23.80
2023-01-20T11:11:54.763Z,24.20
2023-01-20T11:12:54.813Z,26.90
2023-01-20T11:13:54.743Z,23.80
2023-01-20T11:14:54.770Z,23.10
2023-01-20T11:15:54.782Z,23.50
2023-01-20T11:16:54.716Z,24.30
2023-01-20T11:17:54.716Z,24.60
2023-01-20T11:18:54.706Z,24.50
2023-01-20T11:19:54.688Z,25.20
2023-01-20T11:20:54.688Z,25.10
2023-01-20T11:21:54.687Z,25.20
2023-01-20T11:22:54.642Z,25.20
2023-01-20T11:23:54.631Z,25.10
2023-01-20T11:24:54.645Z,25.40
2023-01-20T11:25:54.642Z,25.10
2023-01-20T11:26:54.611Z,24.40
2023-01-20T11:27:54.631Z,25.00
2023-01-20T11:28:54.610Z,25.40
2023-01-20T11:29:54.566Z,24.00
2023-01-20T11:30:54.576Z,23.70
2023-01-20T11:31:54.660Z,24.90
2023-01-20T11:32:54.558Z,25.30
2023-01-20T11:33:54.539Z,24.90
2023-01-20T11:34:54.533Z,25.10
2023-01-20T11:35:54.505Z,24.90
2023-01-20T11:36:54.493Z,25.80
2023-01-20T11:37:54.491Z,23.60
2023-01-20T11:38:54.494Z,25.40
2023-01-20T11:39:54.507Z,24.60
2023-01-20T11:40:54.460Z,24.20
2023-01-20T11:41:54.446Z,24.00
2023-01-20T11:42:54.431Z,24.10
2023-01-20T11:43:54.427Z,23.60
2023-01-20T11:44:54.426Z,22.80
2023-01-20T11:45:54.403Z,23.60
2023-01-20T11:46:54.423Z,24.70
2023-01-20T11:47:54.380Z,25.00
2023-01-20T11:48:54.366Z,25.60
2023-01-20T11:49:54.365Z,26.40
2023-01-20T11:50:54.379Z,25.20
2023-01-20T11:51:54.507Z,25.90
2023-01-20T11:52:54.337Z,26.40
2023-01-20T11:53:54.300Z,25.50
2023-01-20T11:54:54.304Z,25.90
2023-01-20T11:55:54.303Z,24.60
2023-01-20T11:56:54.275Z,25.30
2023-01-20T11:57:54.258Z,26.10
2023-01-20T11:58:54.348Z,26.20
2023-01-20T11:59:54.241Z,25.90
2023-01-20T12:00:54.265Z,24.90
2023-01-20T12:01:54.210Z,26.20
2023-01-20T12:02:54.202Z,26.60
2023-01-20T12:03:54.285Z,25.40
2023-01-20T12:04:54.228Z,26.30
2023-01-20T12:05:55.093Z,25.70
2023-01-20T12:06:54.166Z,26.40
2023-01-20T12:07:54.198Z,26.00
2023-01-20T12:08:54.153Z,27.60
2023-01-20T12:09:54.152Z,27.80
2023-01-20T12:10:54.158Z,26.00
2023-01-20T12:11:54.115Z,26.80
2023-01-20T12:12:54.113Z,27.10
2023-01-20T12:13:54.077Z,27.60
2023-01-20T12:14:54.081Z,27.30
2023-01-20T12:15:54.059Z,28.00
2023-01-20T12:16:54.122Z,26.90
2023-01-20T12:17:54.045Z,27.60
2023-01-20T12:19:01.582Z,32.30
2023-01-20T12:19:55.011Z,30.30
2023-01-20T12:20:55.598Z,26.70
2023-01-20T12:21:54.006Z,30.40
2023-01-20T12:22:54.021Z,27.00
2023-01-20T12:23:53.977Z,26.40
2023-01-20T12:24:53.958Z,25.40
2023-01-20T12:25:53.942Z,23.90
2023-01-20T12:26:53.953Z,25.10
2023-01-20T12:27:53.938Z,22.40
2023-01-20T12:28:53.974Z,23.70
2023-01-20T12:29:53.914Z,24.60
2023-01-20T12:30:53.972Z,22.80
2023-01-20T12:31:53.918Z,22.10
2023-01-20T12:32:53.890Z,22.40
2023-01-20T12:33:53.853Z,22.50
2023-01-20T12:34:53.869Z,22.70
2023-01-20T12:35:53.832Z,21.70
2023-01-20T12:36:53.824Z,21.90
2023-01-20T12:37:53.828Z,23.20
2023-01-20T12:38:53.818Z,22.90
2023-01-20T12:39:53.790Z,22.40
2023-01-20T12:40:53.807Z,21.40
2023-01-20T12:41:53.799Z,22.60
2023-01-20T12:42:53.753Z,22.20
2023-01-20T12:43:53.762Z,26.00
2023-01-20T12:44:53.746Z,30.40
2023-01-20T12:45:53.810Z,34.00
2023-01-20T12:46:53.747Z,34.90
2023-01-20T12:47:53.742Z,28.50
2023-01-20T12:48:53.730Z,25.70
2023-01-20T12:49:53.675Z,25.30
2023-01-20T12:50:53.668Z,23.90
2023-01-20T12:51:53.668Z,25.00
2023-01-20T12:52:53.685Z,24.40
2023-01-20T12:53:53.643Z,24.10
2023-01-20T12:54:53.620Z,25.50
2023-01-20T12:55:53.616Z,23.10